sensor_id;sensor_type;location;lat;lon;timestamp;pressure;altitude;pressure_sealevel;temperature;humidity
82621;BME280;72291;55.002;-1.592;2023-09-19T00:00:39;99073.32;;;11.98;46.73
82621;BME280;72291;55.002;-1.592;2023-09-19T00:03:06;99082.51;;;10.33;49.38
82621;BME280;72291;55.002;-1.592;2023-09-19T00:05:33;99082.27;;;9.78;51.28
82621;BME280;72291;55.002;-1.592;2023-09-19T00:07:55;99066.52;;;11.44;48.47
82621;BME280;72291;55.002;-1.592;2023-09-19T00:10:20;99068.44;;;10.58;50.23
82621;BME280;72291;55.002;-1.592;2023-09-19T00:12:45;99075.55;;;9.89;50.57
82621;BME280;72291;55.002;-1.592;2023-09-19T00:15:10;99078.27;;;10.32;51.00
82621;BME280;72291;55.002;-1.592;2023-09-19T00:17:35;99072.31;;;10.57;50.61
82621;BME280;72291;55.002;-1.592;2023-09-19T00:20:00;99070.98;;;10.68;50.72
82621;BME280;72291;55.002;-1.592;2023-09-19T00:22:25;99071.87;;;10.37;51.67
82621;BME280;72291;55.002;-1.592;2023-09-19T00:24:55;99067.13;;;10.79;50.80
82621;BME280;72291;55.002;-1.592;2023-09-19T00:27:20;99063.98;;;10.65;50.73
82621;BME280;72291;55.002;-1.592;2023-09-19T00:29:40;99063.48;;;11.05;50.57
82621;BME280;72291;55.002;-1.592;2023-09-19T00:32:07;99058.13;;;10.22;52.35
82621;BME280;72291;55.002;-1.592;2023-09-19T00:34:32;99057.01;;;10.48;51.77
82621;BME280;72291;55.002;-1.592;2023-09-19T00:36:57;99057.40;;;11.08;51.00
82621;BME280;72291;55.002;-1.592;2023-09-19T00:39:22;99060.79;;;10.49;52.79
82621;BME280;72291;55.002;-1.592;2023-09-19T00:41:47;99047.99;;;10.90;52.38
82621;BME280;72291;55.002;-1.592;2023-09-19T00:44:13;99046.34;;;10.87;51.92
82621;BME280;72291;55.002;-1.592;2023-09-19T00:46:38;99042.19;;;10.30;52.67
82621;BME280;72291;55.002;-1.592;2023-09-19T00:49:03;99027.02;;;10.44;52.28
82621;BME280;72291;55.002;-1.592;2023-09-19T00:51:28;99029.77;;;10.55;52.09
82621;BME280;72291;55.002;-1.592;2023-09-19T00:53:54;99027.85;;;11.89;49.28
82621;BME280;72291;55.002;-1.592;2023-09-19T00:56:19;99036.41;;;11.15;50.68
82621;BME280;72291;55.002;-1.592;2023-09-19T00:58:43;99029.36;;;11.78;48.20
82621;BME280;72291;55.002;-1.592;2023-09-19T01:01:09;99038.07;;;10.88;50.03
82621;BME280;72291;55.002;-1.592;2023-09-19T01:03:34;99036.97;;;11.00;50.03
82621;BME280;72291;55.002;-1.592;2023-09-19T01:05:59;99033.10;;;11.22;49.51
82621;BME280;72291;55.002;-1.592;2023-09-19T01:08:24;99027.28;;;11.19;49.73
82621;BME280;72291;55.002;-1.592;2023-09-19T01:10:54;99030.85;;;10.55;51.07
82621;BME280;72291;55.002;-1.592;2023-09-19T01:13:22;99033.69;;;10.44;51.85
82621;BME280;72291;55.002;-1.592;2023-09-19T01:15:47;99037.23;;;10.14;51.93
82621;BME280;72291;55.002;-1.592;2023-09-19T01:18:13;99034.37;;;10.24;51.53
82621;BME280;72291;55.002;-1.592;2023-09-19T01:20:37;99022.22;;;11.23;49.78
82621;BME280;72291;55.002;-1.592;2023-09-19T01:23:01;99037.41;;;10.02;52.06
82621;BME280;72291;55.002;-1.592;2023-09-19T01:25:35;99040.45;;;10.83;50.40
82621;BME280;72291;55.002;-1.592;2023-09-19T01:27:56;99043.45;;;10.35;51.94
82621;BME280;72291;55.002;-1.592;2023-09-19T01:30:12;99047.24;;;10.03;52.61
82621;BME280;72291;55.002;-1.592;2023-09-19T01:32:36;99058.06;;;9.97;53.33
82621;BME280;72291;55.002;-1.592;2023-09-19T01:35:01;99047.82;;;10.27;52.83
82621;BME280;72291;55.002;-1.592;2023-09-19T01:37:26;99047.58;;;9.11;55.50
82621;BME280;72291;55.002;-1.592;2023-09-19T01:39:53;99048.37;;;9.94;53.47
82621;BME280;72291;55.002;-1.592;2023-09-19T01:42:27;99046.71;;;9.56;53.51
82621;BME280;72291;55.002;-1.592;2023-09-19T01:44:49;99043.72;;;9.91;53.39
82621;BME280;72291;55.002;-1.592;2023-09-19T01:47:13;99035.03;;;9.82;53.47
82621;BME280;72291;55.002;-1.592;2023-09-19T01:49:37;99027.67;;;10.35;53.46
82621;BME280;72291;55.002;-1.592;2023-09-19T01:52:04;99030.54;;;9.79;52.98
82621;BME280;72291;55.002;-1.592;2023-09-19T01:54:26;99035.78;;;10.85;51.48
82621;BME280;72291;55.002;-1.592;2023-09-19T01:56:51;99043.69;;;10.77;50.70
82621;BME280;72291;55.002;-1.592;2023-09-19T01:59:15;99036.19;;;10.88;50.51
82621;BME280;72291;55.002;-1.592;2023-09-19T02:01:37;99028.65;;;9.81;52.36
82621;BME280;72291;55.002;-1.592;2023-09-19T02:04:03;99016.53;;;10.33;52.20
82621;BME280;72291;55.002;-1.592;2023-09-19T02:06:27;99019.90;;;10.63;51.62
82621;BME280;72291;55.002;-1.592;2023-09-19T02:08:54;99020.96;;;10.30;51.77
82621;BME280;72291;55.002;-1.592;2023-09-19T02:11:17;99027.83;;;9.70;53.03
82621;BME280;72291;55.002;-1.592;2023-09-19T02:13:43;99014.89;;;10.63;51.75
82621;BME280;72291;55.002;-1.592;2023-09-19T02:16:08;99010.97;;;10.64;52.01
82621;BME280;72291;55.002;-1.592;2023-09-19T02:18:34;99012.68;;;10.45;51.28
82621;BME280;72291;55.002;-1.592;2023-09-19T02:20:58;99006.76;;;10.54;51.83
82621;BME280;72291;55.002;-1.592;2023-09-19T02:23:24;98991.66;;;10.12;52.95
82621;BME280;72291;55.002;-1.592;2023-09-19T02:25:53;98987.83;;;10.65;51.84
82621;BME280;72291;55.002;-1.592;2023-09-19T02:28:13;98989.01;;;9.48;54.01
82621;BME280;72291;55.002;-1.592;2023-09-19T02:30:39;98988.78;;;9.97;52.40
82621;BME280;72291;55.002;-1.592;2023-09-19T02:33:04;98988.35;;;10.42;52.01
82621;BME280;72291;55.002;-1.592;2023-09-19T02:35:29;98982.18;;;10.65;51.92
82621;BME280;72291;55.002;-1.592;2023-09-19T02:37:54;98983.09;;;9.70;53.45
82621;BME280;72291;55.002;-1.592;2023-09-19T02:40:19;98983.97;;;8.94;55.08
82621;BME280;72291;55.002;-1.592;2023-09-19T02:42:45;98969.09;;;9.81;53.43
82621;BME280;72291;55.002;-1.592;2023-09-19T02:45:10;98960.72;;;10.72;51.63
82621;BME280;72291;55.002;-1.592;2023-09-19T02:47:35;98962.03;;;10.11;53.46
82621;BME280;72291;55.002;-1.592;2023-09-19T02:50:00;98956.08;;;9.92;53.08
82621;BME280;72291;55.002;-1.592;2023-09-19T02:52:25;98947.77;;;10.88;52.50
82621;BME280;72291;55.002;-1.592;2023-09-19T02:54:50;98953.05;;;10.22;53.41
82621;BME280;72291;55.002;-1.592;2023-09-19T02:57:15;98941.66;;;11.17;51.79
82621;BME280;72291;55.002;-1.592;2023-09-19T02:59:40;98942.64;;;11.06;52.14
82621;BME280;72291;55.002;-1.592;2023-09-19T03:02:05;98939.14;;;11.17;51.31
82621;BME280;72291;55.002;-1.592;2023-09-19T03:04:31;98933.52;;;11.01;52.20
82621;BME280;72291;55.002;-1.592;2023-09-19T03:06:56;98927.03;;;11.33;51.29
82621;BME280;72291;55.002;-1.592;2023-09-19T03:09:21;98924.31;;;10.95;51.85
82621;BME280;72291;55.002;-1.592;2023-09-19T03:11:46;98928.73;;;9.63;54.58
82621;BME280;72291;55.002;-1.592;2023-09-19T03:14:11;98924.99;;;10.72;52.85
82621;BME280;72291;55.002;-1.592;2023-09-19T03:16:36;98922.90;;;10.31;53.26
82621;BME280;72291;55.002;-1.592;2023-09-19T03:19:01;98922.71;;;10.77;51.90
82621;BME280;72291;55.002;-1.592;2023-09-19T03:21:26;98912.06;;;11.58;50.67
82621;BME280;72291;55.002;-1.592;2023-09-19T03:23:51;98911.57;;;11.52;50.17
82621;BME280;72291;55.002;-1.592;2023-09-19T03:26:17;98909.54;;;11.13;51.16
82621;BME280;72291;55.002;-1.592;2023-09-19T03:28:43;98904.32;;;11.13;51.56
82621;BME280;72291;55.002;-1.592;2023-09-19T03:31:07;98901.45;;;11.75;50.48
82621;BME280;72291;55.002;-1.592;2023-09-19T03:33:32;98895.47;;;12.54;49.04
82621;BME280;72291;55.002;-1.592;2023-09-19T03:35:57;98895.51;;;11.56;50.18
82621;BME280;72291;55.002;-1.592;2023-09-19T03:38:22;98882.85;;;13.39;47.51
82621;BME280;72291;55.002;-1.592;2023-09-19T03:40:47;98875.34;;;12.37;48.52
82621;BME280;72291;55.002;-1.592;2023-09-19T03:43:12;98870.78;;;12.69;49.35
82621;BME280;72291;55.002;-1.592;2023-09-19T03:45:38;98876.47;;;11.59;51.28
82621;BME280;72291;55.002;-1.592;2023-09-19T03:48:08;98876.91;;;10.83;52.74
82621;BME280;72291;55.002;-1.592;2023-09-19T03:50:28;98878.74;;;11.42;51.47
82621;BME280;72291;55.002;-1.592;2023-09-19T03:52:56;98872.26;;;11.46;51.59
82621;BME280;72291;55.002;-1.592;2023-09-19T03:55:19;98874.35;;;10.86;52.14
82621;BME280;72291;55.002;-1.592;2023-09-19T03:57:48;98865.75;;;12.39;50.66
82621;BME280;72291;55.002;-1.592;2023-09-19T04:00:10;98867.92;;;12.95;48.90
82621;BME280;72291;55.002;-1.592;2023-09-19T04:02:35;98865.83;;;11.08;52.85
82621;BME280;72291;55.002;-1.592;2023-09-19T04:05:00;98853.61;;;12.33;50.47
82621;BME280;72291;55.002;-1.592;2023-09-19T04:07:25;98860.73;;;12.31;50.04
82621;BME280;72291;55.002;-1.592;2023-09-19T04:09:50;98850.93;;;11.44;50.83
82621;BME280;72291;55.002;-1.592;2023-09-19T04:12:15;98849.61;;;12.11;50.67
82621;BME280;72291;55.002;-1.592;2023-09-19T04:14:40;98846.43;;;12.18;49.83
82621;BME280;72291;55.002;-1.592;2023-09-19T04:17:05;98846.59;;;11.67;51.34
82621;BME280;72291;55.002;-1.592;2023-09-19T04:19:30;98840.60;;;12.85;49.69
82621;BME280;72291;55.002;-1.592;2023-09-19T04:21:55;98831.48;;;12.20;49.68
82621;BME280;72291;55.002;-1.592;2023-09-19T04:24:21;98825.58;;;12.29;49.74
82621;BME280;72291;55.002;-1.592;2023-09-19T04:26:46;98825.16;;;12.21;50.30
82621;BME280;72291;55.002;-1.592;2023-09-19T04:29:11;98828.65;;;12.20;49.63
82621;BME280;72291;55.002;-1.592;2023-09-19T04:31:36;98819.03;;;12.27;50.24
82621;BME280;72291;55.002;-1.592;2023-09-19T04:34:01;98816.04;;;12.65;49.83
82621;BME280;72291;55.002;-1.592;2023-09-19T04:36:27;98822.17;;;11.71;52.19
82621;BME280;72291;55.002;-1.592;2023-09-19T04:38:52;98822.55;;;11.32;53.42
82621;BME280;72291;55.002;-1.592;2023-09-19T04:41:17;98823.02;;;10.97;53.90
82621;BME280;72291;55.002;-1.592;2023-09-19T04:43:42;98820.62;;;11.18;54.71
82621;BME280;72291;55.002;-1.592;2023-09-19T04:46:07;98820.80;;;10.59;55.68
82621;BME280;72291;55.002;-1.592;2023-09-19T04:48:32;98810.70;;;10.32;56.19
82621;BME280;72291;55.002;-1.592;2023-09-19T04:50:58;98810.15;;;10.51;55.31
82621;BME280;72291;55.002;-1.592;2023-09-19T04:53:22;98813.85;;;10.11;56.87
82621;BME280;72291;55.002;-1.592;2023-09-19T04:55:50;98810.91;;;9.91;57.48
82621;BME280;72291;55.002;-1.592;2023-09-19T04:58:13;98812.98;;;9.90;58.05
82621;BME280;72291;55.002;-1.592;2023-09-19T05:00:38;98812.45;;;10.11;56.66
82621;BME280;72291;55.002;-1.592;2023-09-19T05:03:04;98811.14;;;10.42;56.33
82621;BME280;72291;55.002;-1.592;2023-09-19T05:05:28;98824.80;;;10.26;57.31
82621;BME280;72291;55.002;-1.592;2023-09-19T05:07:53;98819.55;;;9.64;57.89
82621;BME280;72291;55.002;-1.592;2023-09-19T05:10:18;98820.81;;;10.71;55.79
82621;BME280;72291;55.002;-1.592;2023-09-19T05:12:44;98824.57;;;10.28;56.13
82621;BME280;72291;55.002;-1.592;2023-09-19T05:15:09;98817.13;;;10.81;54.94
82621;BME280;72291;55.002;-1.592;2023-09-19T05:17:35;98809.38;;;10.99;54.27
82621;BME280;72291;55.002;-1.592;2023-09-19T05:19:59;98802.77;;;11.86;52.46
82621;BME280;72291;55.002;-1.592;2023-09-19T05:22:27;98805.17;;;10.31;55.03
82621;BME280;72291;55.002;-1.592;2023-09-19T05:24:49;98803.53;;;10.82;54.02
82621;BME280;72291;55.002;-1.592;2023-09-19T05:27:15;98799.44;;;10.88;54.97
82621;BME280;72291;55.002;-1.592;2023-09-19T05:29:39;98790.67;;;10.97;55.36
82621;BME280;72291;55.002;-1.592;2023-09-19T05:32:05;98792.12;;;10.85;55.51
82621;BME280;72291;55.002;-1.592;2023-09-19T05:34:30;98795.52;;;9.59;58.33
82621;BME280;72291;55.002;-1.592;2023-09-19T05:36:55;98790.15;;;10.84;55.75
82621;BME280;72291;55.002;-1.592;2023-09-19T05:39:21;98789.99;;;10.31;57.06
82621;BME280;72291;55.002;-1.592;2023-09-19T05:41:46;98780.35;;;10.64;56.74
82621;BME280;72291;55.002;-1.592;2023-09-19T05:44:11;98777.29;;;10.50;56.30
82621;BME280;72291;55.002;-1.592;2023-09-19T05:46:36;98767.09;;;10.89;56.49
82621;BME280;72291;55.002;-1.592;2023-09-19T05:49:01;98762.67;;;11.18;55.99
82621;BME280;72291;55.002;-1.592;2023-09-19T05:51:26;98761.84;;;11.04;56.24
82621;BME280;72291;55.002;-1.592;2023-09-19T05:53:51;98767.55;;;11.20;55.83
82621;BME280;72291;55.002;-1.592;2023-09-19T05:56:16;98766.56;;;12.02;54.07
82621;BME280;72291;55.002;-1.592;2023-09-19T05:58:42;98760.68;;;11.89;53.97
82621;BME280;72291;55.002;-1.592;2023-09-19T06:01:07;98760.26;;;10.98;55.71
82621;BME280;72291;55.002;-1.592;2023-09-19T06:03:32;98753.91;;;11.73;54.33
82621;BME280;72291;55.002;-1.592;2023-09-19T06:05:57;98747.64;;;12.37;53.02
82621;BME280;72291;55.002;-1.592;2023-09-19T06:08:22;98746.64;;;12.18;53.06
82621;BME280;72291;55.002;-1.592;2023-09-19T06:10:47;98742.74;;;10.91;55.34
82621;BME280;72291;55.002;-1.592;2023-09-19T06:13:12;98724.54;;;12.38;52.64
82621;BME280;72291;55.002;-1.592;2023-09-19T06:15:37;98727.42;;;12.24;53.19
82621;BME280;72291;55.002;-1.592;2023-09-19T06:18:03;98727.94;;;11.47;54.91
82621;BME280;72291;55.002;-1.592;2023-09-19T06:20:28;98735.26;;;10.68;56.86
82621;BME280;72291;55.002;-1.592;2023-09-19T06:22:53;98745.45;;;10.13;56.78
82621;BME280;72291;55.002;-1.592;2023-09-19T06:25:18;98741.53;;;11.06;56.15
82621;BME280;72291;55.002;-1.592;2023-09-19T06:27:43;98742.78;;;10.50;58.01
82621;BME280;72291;55.002;-1.592;2023-09-19T06:30:09;98742.78;;;9.95;59.00
82621;BME280;72291;55.002;-1.592;2023-09-19T06:32:33;98736.67;;;10.81;58.70
82621;BME280;72291;55.002;-1.592;2023-09-19T06:34:58;98739.62;;;9.59;62.04
82621;BME280;72291;55.002;-1.592;2023-09-19T06:37:23;98737.30;;;9.15;64.32
82621;BME280;72291;55.002;-1.592;2023-09-19T06:39:49;98732.18;;;8.91;65.16
82621;BME280;72291;55.002;-1.592;2023-09-19T06:42:14;98718.78;;;8.54;66.86
82621;BME280;72291;55.002;-1.592;2023-09-19T06:44:39;98719.45;;;8.37;67.52
82621;BME280;72291;55.002;-1.592;2023-09-19T06:47:05;98714.51;;;9.07;66.18
82621;BME280;72291;55.002;-1.592;2023-09-19T06:49:30;98716.27;;;9.21;65.89
82621;BME280;72291;55.002;-1.592;2023-09-19T06:51:55;98714.01;;;8.72;67.55
82621;BME280;72291;55.002;-1.592;2023-09-19T06:54:20;98719.64;;;9.09;66.71
82621;BME280;72291;55.002;-1.592;2023-09-19T06:56:45;98723.79;;;8.69;67.21
82621;BME280;72291;55.002;-1.592;2023-09-19T06:59:10;98722.12;;;8.43;67.49
82621;BME280;72291;55.002;-1.592;2023-09-19T07:01:35;98721.46;;;8.00;69.24
82621;BME280;72291;55.002;-1.592;2023-09-19T07:04:01;98716.52;;;8.96;67.69
82621;BME280;72291;55.002;-1.592;2023-09-19T07:06:26;98712.66;;;8.24;70.20
82621;BME280;72291;55.002;-1.592;2023-09-19T07:08:51;98700.75;;;9.51;66.41
82621;BME280;72291;55.002;-1.592;2023-09-19T07:11:16;98687.66;;;9.17;66.82
82621;BME280;72291;55.002;-1.592;2023-09-19T07:13:41;98673.15;;;8.69;68.03
82621;BME280;72291;55.002;-1.592;2023-09-19T07:16:07;98666.40;;;9.20;66.95
82621;BME280;72291;55.002;-1.592;2023-09-19T07:18:32;98655.18;;;9.71;65.66
82621;BME280;72291;55.002;-1.592;2023-09-19T07:20:57;98648.48;;;9.46;66.32
82621;BME280;72291;55.002;-1.592;2023-09-19T07:23:22;98636.08;;;10.38;64.83
82621;BME280;72291;55.002;-1.592;2023-09-19T07:25:47;98631.75;;;9.57;64.77
82621;BME280;72291;55.002;-1.592;2023-09-19T07:28:13;98621.38;;;10.56;62.39
82621;BME280;72291;55.002;-1.592;2023-09-19T07:30:39;98612.32;;;10.90;61.35
82621;BME280;72291;55.002;-1.592;2023-09-19T07:33:04;98600.98;;;10.91;60.95
82621;BME280;72291;55.002;-1.592;2023-09-19T07:35:29;98593.07;;;10.52;61.43
82621;BME280;72291;55.002;-1.592;2023-09-19T07:37:53;98596.01;;;11.38;60.70
82621;BME280;72291;55.002;-1.592;2023-09-19T07:40:19;98587.54;;;10.60;61.94
82621;BME280;72291;55.002;-1.592;2023-09-19T07:42:43;98577.52;;;11.40;59.83
82621;BME280;72291;55.002;-1.592;2023-09-19T07:45:09;98571.66;;;11.60;60.38
82621;BME280;72291;55.002;-1.592;2023-09-19T07:47:34;98566.77;;;11.14;61.29
82621;BME280;72291;55.002;-1.592;2023-09-19T07:49:59;98563.76;;;10.65;60.85
82621;BME280;72291;55.002;-1.592;2023-09-19T07:52:24;98555.08;;;10.52;61.94
82621;BME280;72291;55.002;-1.592;2023-09-19T07:54:49;98553.70;;;10.08;64.10
82621;BME280;72291;55.002;-1.592;2023-09-19T07:57:14;98545.53;;;11.31;60.95
82621;BME280;72291;55.002;-1.592;2023-09-19T07:59:40;98544.06;;;11.43;62.22
82621;BME280;72291;55.002;-1.592;2023-09-19T08:02:05;98536.50;;;10.84;62.52
82621;BME280;72291;55.002;-1.592;2023-09-19T08:04:30;98527.99;;;10.06;64.93
82621;BME280;72291;55.002;-1.592;2023-09-19T08:06:55;98514.52;;;10.68;64.07
82621;BME280;72291;55.002;-1.592;2023-09-19T08:09:21;98511.17;;;10.27;64.78
82621;BME280;72291;55.002;-1.592;2023-09-19T08:11:46;98507.38;;;9.75;66.01
82621;BME280;72291;55.002;-1.592;2023-09-19T08:14:11;98506.57;;;9.73;67.39
82621;BME280;72291;55.002;-1.592;2023-09-19T08:16:37;98497.23;;;10.93;63.70
82621;BME280;72291;55.002;-1.592;2023-09-19T08:19:01;98498.72;;;10.70;64.60
82621;BME280;72291;55.002;-1.592;2023-09-19T08:21:27;98493.90;;;10.93;63.76
82621;BME280;72291;55.002;-1.592;2023-09-19T08:23:52;98490.27;;;11.05;63.65
82621;BME280;72291;55.002;-1.592;2023-09-19T08:26:17;98483.15;;;10.98;63.46
82621;BME280;72291;55.002;-1.592;2023-09-19T08:28:43;98476.87;;;11.39;63.01
82621;BME280;72291;55.002;-1.592;2023-09-19T08:31:08;98475.00;;;10.50;64.47
82621;BME280;72291;55.002;-1.592;2023-09-19T08:33:33;98461.66;;;11.15;62.71
82621;BME280;72291;55.002;-1.592;2023-09-19T08:35:58;98455.08;;;11.93;60.89
82621;BME280;72291;55.002;-1.592;2023-09-19T08:38:23;98460.45;;;11.86;61.34
82621;BME280;72291;55.002;-1.592;2023-09-19T08:40:49;98446.65;;;12.25;59.34
82621;BME280;72291;55.002;-1.592;2023-09-19T08:43:14;98438.25;;;12.70;58.97
82621;BME280;72291;55.002;-1.592;2023-09-19T08:45:39;98432.76;;;12.34;59.85
82621;BME280;72291;55.002;-1.592;2023-09-19T08:48:16;98421.95;;;12.20;60.15
82621;BME280;72291;55.002;-1.592;2023-09-19T08:50:29;98422.28;;;12.08;61.08
82621;BME280;72291;55.002;-1.592;2023-09-19T08:52:56;98415.25;;;12.09;60.67
82621;BME280;72291;55.002;-1.592;2023-09-19T08:55:19;98410.81;;;11.85;61.24
82621;BME280;72291;55.002;-1.592;2023-09-19T08:57:45;98401.72;;;12.67;60.21
82621;BME280;72291;55.002;-1.592;2023-09-19T09:00:12;98395.56;;;12.42;60.07
82621;BME280;72291;55.002;-1.592;2023-09-19T09:02:37;98400.59;;;12.41;60.83
82621;BME280;72291;55.002;-1.592;2023-09-19T09:05:01;98400.69;;;11.07;62.84
82621;BME280;72291;55.002;-1.592;2023-09-19T09:07:25;98389.55;;;12.57;60.22
82621;BME280;72291;55.002;-1.592;2023-09-19T09:09:51;98385.24;;;12.66;59.89
82621;BME280;72291;55.002;-1.592;2023-09-19T09:12:15;98386.16;;;11.91;60.98
82621;BME280;72291;55.002;-1.592;2023-09-19T09:14:44;98379.57;;;12.71;59.78
82621;BME280;72291;55.002;-1.592;2023-09-19T09:17:06;98371.98;;;12.70;59.19
82621;BME280;72291;55.002;-1.592;2023-09-19T09:19:31;98373.57;;;12.56;59.82
82621;BME280;72291;55.002;-1.592;2023-09-19T09:22:07;98378.78;;;12.13;60.60
82621;BME280;72291;55.002;-1.592;2023-09-19T09:24:27;98378.01;;;11.49;62.31
82621;BME280;72291;55.002;-1.592;2023-09-19T09:26:47;98376.82;;;12.13;61.64
82621;BME280;72291;55.002;-1.592;2023-09-19T09:29:12;98370.76;;;12.32;60.47
82621;BME280;72291;55.002;-1.592;2023-09-19T09:31:37;98369.29;;;11.73;61.28
82621;BME280;72291;55.002;-1.592;2023-09-19T09:34:02;98372.96;;;12.32;60.83
82621;BME280;72291;55.002;-1.592;2023-09-19T09:36:34;98377.70;;;11.10;62.71
82621;BME280;72291;55.002;-1.592;2023-09-19T09:38:52;98362.69;;;12.69;59.89
82621;BME280;72291;55.002;-1.592;2023-09-19T09:41:18;98352.06;;;12.77;59.36
82621;BME280;72291;55.002;-1.592;2023-09-19T09:43:43;98344.99;;;12.55;59.57
82621;BME280;72291;55.002;-1.592;2023-09-19T09:46:11;98344.96;;;11.99;60.60
82621;BME280;72291;55.002;-1.592;2023-09-19T09:48:33;98351.14;;;12.37;58.80
82621;BME280;72291;55.002;-1.592;2023-09-19T09:50:58;98364.84;;;11.77;61.12
82621;BME280;72291;55.002;-1.592;2023-09-19T09:53:26;98364.77;;;12.00;60.62
82621;BME280;72291;55.002;-1.592;2023-09-19T09:55:59;98357.31;;;12.45;59.48
82621;BME280;72291;55.002;-1.592;2023-09-19T09:58:17;98356.81;;;11.20;62.36
82621;BME280;72291;55.002;-1.592;2023-09-19T10:03:13;98348.03;;;12.78;58.12
82621;BME280;72291;55.002;-1.592;2023-09-19T10:05:33;98343.45;;;13.32;57.18
82621;BME280;72291;55.002;-1.592;2023-09-19T10:07:54;98344.09;;;12.96;57.48
82621;BME280;72291;55.002;-1.592;2023-09-19T10:10:29;98347.44;;;12.34;59.50
82621;BME280;72291;55.002;-1.592;2023-09-19T10:12:46;98343.49;;;12.78;58.02
82621;BME280;72291;55.002;-1.592;2023-09-19T10:15:11;98335.45;;;13.43;57.64
82621;BME280;72291;55.002;-1.592;2023-09-19T10:17:36;98338.01;;;13.98;56.72
82621;BME280;72291;55.002;-1.592;2023-09-19T10:20:00;98340.81;;;13.35;57.11
82621;BME280;72291;55.002;-1.592;2023-09-19T10:22:26;98343.41;;;12.34;58.44
82621;BME280;72291;55.002;-1.592;2023-09-19T10:24:53;98341.03;;;12.44;58.99
82621;BME280;72291;55.002;-1.592;2023-09-19T10:27:16;98334.38;;;13.56;57.16
82621;BME280;72291;55.002;-1.592;2023-09-19T10:29:41;98344.70;;;13.71;56.02
82621;BME280;72291;55.002;-1.592;2023-09-19T10:32:06;98353.15;;;13.29;56.96
82621;BME280;72291;55.002;-1.592;2023-09-19T10:34:31;98353.32;;;13.83;56.09
82621;BME280;72291;55.002;-1.592;2023-09-19T10:36:56;98354.87;;;13.36;57.07
82621;BME280;72291;55.002;-1.592;2023-09-19T10:39:21;98354.59;;;13.43;57.01
82621;BME280;72291;55.002;-1.592;2023-09-19T10:41:51;98355.39;;;13.41;56.83
82621;BME280;72291;55.002;-1.592;2023-09-19T10:44:12;98366.17;;;14.70;53.46
82621;BME280;72291;55.002;-1.592;2023-09-19T10:46:37;98360.13;;;13.69;56.02
82621;BME280;72291;55.002;-1.592;2023-09-19T10:49:01;98361.88;;;13.68;56.66
82621;BME280;72291;55.002;-1.592;2023-09-19T10:51:30;98357.16;;;13.72;56.92
82621;BME280;72291;55.002;-1.592;2023-09-19T10:53:53;98369.82;;;13.23;57.00
82621;BME280;72291;55.002;-1.592;2023-09-19T10:56:21;98366.13;;;13.12;56.94
82621;BME280;72291;55.002;-1.592;2023-09-19T10:58:42;98374.66;;;12.98;56.17
82621;BME280;72291;55.002;-1.592;2023-09-19T11:01:07;98370.40;;;13.98;55.46
82621;BME280;72291;55.002;-1.592;2023-09-19T11:03:32;98366.56;;;14.93;53.17
82621;BME280;72291;55.002;-1.592;2023-09-19T11:06:06;98365.76;;;14.60;53.97
82621;BME280;72291;55.002;-1.592;2023-09-19T11:08:22;98366.50;;;14.59;54.44
82621;BME280;72291;55.002;-1.592;2023-09-19T11:10:47;98360.01;;;14.51;54.02
82621;BME280;72291;55.002;-1.592;2023-09-19T11:13:24;98344.82;;;14.65;51.81
82621;BME280;72291;55.002;-1.592;2023-09-19T11:20:27;98332.59;;;20.06;43.40
82621;BME280;72291;55.002;-1.592;2023-09-19T11:35:06;98396.51;;;16.18;49.11
82621;BME280;72291;55.002;-1.592;2023-09-19T11:44:37;98412.40;;;14.97;53.48
82621;BME280;72291;55.002;-1.592;2023-09-19T11:47:02;98418.22;;;14.81;54.19
82621;BME280;72291;55.002;-1.592;2023-09-19T11:49:29;98426.47;;;13.54;58.23
82621;BME280;72291;55.002;-1.592;2023-09-19T11:51:52;98433.83;;;15.12;54.10
82621;BME280;72291;55.002;-1.592;2023-09-19T11:54:18;98435.10;;;15.62;52.84
82621;BME280;72291;55.002;-1.592;2023-09-19T11:56:44;98439.05;;;13.94;55.95
82621;BME280;72291;55.002;-1.592;2023-09-19T11:59:08;98438.44;;;14.18;56.20
82621;BME280;72291;55.002;-1.592;2023-09-19T12:01:33;98437.88;;;14.61;55.68
82621;BME280;72291;55.002;-1.592;2023-09-19T12:03:59;98431.51;;;14.67;55.08
82621;BME280;72291;55.002;-1.592;2023-09-19T12:06:24;98440.87;;;14.45;57.09
82621;BME280;72291;55.002;-1.592;2023-09-19T12:08:48;98431.71;;;14.24;55.65
82621;BME280;72291;55.002;-1.592;2023-09-19T12:11:14;98452.55;;;13.00;59.58
82621;BME280;72291;55.002;-1.592;2023-09-19T12:13:43;98454.17;;;12.66;61.24
82621;BME280;72291;55.002;-1.592;2023-09-19T12:16:11;98458.30;;;12.85;61.05
82621;BME280;72291;55.002;-1.592;2023-09-19T12:18:29;98446.30;;;14.33;57.43
82621;BME280;72291;55.002;-1.592;2023-09-19T12:20:53;98442.24;;;13.72;58.38
82621;BME280;72291;55.002;-1.592;2023-09-19T12:23:18;98437.81;;;14.26;58.14
82621;BME280;72291;55.002;-1.592;2023-09-19T12:25:44;98439.21;;;15.00;55.95
82621;BME280;72291;55.002;-1.592;2023-09-19T12:28:08;98440.84;;;14.28;56.51
82621;BME280;72291;55.002;-1.592;2023-09-19T12:30:34;98439.53;;;13.91;58.26
82621;BME280;72291;55.002;-1.592;2023-09-19T12:32:59;98434.24;;;13.79;57.46
82621;BME280;72291;55.002;-1.592;2023-09-19T12:35:27;98437.78;;;14.79;58.90
82621;BME280;72291;55.002;-1.592;2023-09-19T12:37:52;98434.60;;;14.88;57.67
82621;BME280;72291;55.002;-1.592;2023-09-19T12:40:14;98429.31;;;15.61;57.12
82621;BME280;72291;55.002;-1.592;2023-09-19T12:42:39;98431.45;;;14.68;57.18
82621;BME280;72291;55.002;-1.592;2023-09-19T12:45:07;98437.81;;;15.32;55.54
82621;BME280;72291;55.002;-1.592;2023-09-19T12:47:29;98438.85;;;14.87;57.35
82621;BME280;72291;55.002;-1.592;2023-09-19T12:50:05;98448.52;;;15.22;56.63
82621;BME280;72291;55.002;-1.592;2023-09-19T12:52:19;98458.70;;;15.04;55.51
82621;BME280;72291;55.002;-1.592;2023-09-19T12:54:44;98462.40;;;14.28;58.21
82621;BME280;72291;55.002;-1.592;2023-09-19T12:59:34;98460.40;;;14.28;58.92
82621;BME280;72291;55.002;-1.592;2023-09-19T13:02:05;98457.92;;;15.26;57.42
82621;BME280;72291;55.002;-1.592;2023-09-19T13:04:25;98461.41;;;15.15;57.05
82621;BME280;72291;55.002;-1.592;2023-09-19T13:06:51;98458.24;;;15.18;56.24
82621;BME280;72291;55.002;-1.592;2023-09-19T13:09:16;98459.06;;;15.16;57.04